Terminal Aerodrome Forecast
Issued by NWS Wilmington, OH

Home | Current Version | Previous Version | Text Only | Print | Product List | Glossary On
Versions: 1 2 3 4 5 6 7 8 9 10 11 12 13 14 15 16 17 18 19 20 21
000
FTUS41 KILN 311120
TAFILN
TAF
KILN 311120Z 3112/0112 VRB03KT P6SM FEW080 BKN250
     FM311700 05005KT P6SM SCT080 OVC250
     FM010000 06003KT P6SM SCT150 BKN200=

USA.gov is the U.S. government's official web portal to all federal, state and local government web resources and services.